createdAt,value
2022-09-12T00:01:14.386Z,16.12
2022-09-12T00:03:42.594Z,16.13
2022-09-12T00:06:13.469Z,16.15
2022-09-12T00:08:42.658Z,16.15
2022-09-12T00:11:12.370Z,15.90
2022-09-12T00:13:42.122Z,15.13
2022-09-12T00:16:16.691Z,15.19
2022-09-12T00:18:46.817Z,15.63
2022-09-12T00:21:15.376Z,15.78
2022-09-12T00:23:44.622Z,15.83
2022-09-12T00:26:15.273Z,15.26
2022-09-12T00:28:46.068Z,15.04
2022-09-12T00:31:16.763Z,15.11
2022-09-12T00:33:45.015Z,15.49
2022-09-12T00:36:15.762Z,15.50
2022-09-12T00:38:46.487Z,15.14
2022-09-12T00:41:18.872Z,15.09
2022-09-12T00:43:48.452Z,14.35
2022-09-12T00:46:27.269Z,14.50
2022-09-12T00:49:00.156Z,14.92
2022-09-12T00:51:30.484Z,15.03
2022-09-12T00:54:02.472Z,14.10
2022-09-12T00:56:30.584Z,13.93
2022-09-12T00:59:03.138Z,14.32
2022-09-12T01:01:32.770Z,14.81
2022-09-12T01:04:03.593Z,15.18
2022-09-12T01:06:36.512Z,15.39
2022-09-12T01:09:06.214Z,15.53
2022-09-12T01:11:38.111Z,15.20
2022-09-12T01:14:07.448Z,15.44
2022-09-12T01:16:36.689Z,15.13
2022-09-12T01:19:26.148Z,14.47
2022-09-12T01:22:12.424Z,14.42
2022-09-12T01:25:09.442Z,14.60
2022-09-12T01:27:59.444Z,15.13
2022-09-12T01:30:45.528Z,15.21
2022-09-12T01:33:27.101Z,15.07
2022-09-12T01:36:17.093Z,14.70
2022-09-12T01:38:50.221Z,14.86
2022-09-12T01:41:27.769Z,15.02
2022-09-12T01:44:06.418Z,15.11
2022-09-12T01:46:44.005Z,15.14
2022-09-12T01:49:18.714Z,15.38
2022-09-12T01:51:54.383Z,15.49
2022-09-12T01:54:28.708Z,15.54
2022-09-12T01:57:01.434Z,15.54
2022-09-12T01:59:34.293Z,15.56
2022-09-12T02:02:08.415Z,15.55
2022-09-12T02:04:40.624Z,15.62
2022-09-12T02:07:15.344Z,15.05
2022-09-12T02:09:48.463Z,15.41
2022-09-12T02:12:20.248Z,15.36
2022-09-12T02:14:52.624Z,15.38
2022-09-12T02:17:24.398Z,14.96
2022-09-12T02:19:56.734Z,15.25
2022-09-12T02:22:28.088Z,15.33
2022-09-12T02:25:00.142Z,15.43
2022-09-12T02:27:34.340Z,15.36
2022-09-12T02:30:02.237Z,15.56
2022-09-12T02:32:38.064Z,15.56
2022-09-12T02:35:10.596Z,15.31
2022-09-12T02:37:56.071Z,15.48
2022-09-12T02:40:24.357Z,15.53
2022-09-12T02:42:52.784Z,15.32
2022-09-12T02:45:20.802Z,14.97
2022-09-12T02:47:52.844Z,15.01
2022-09-12T02:50:20.757Z,15.10
2022-09-12T02:52:48.719Z,14.88
2022-09-12T02:55:17.373Z,14.95
2022-09-12T02:57:47.293Z,15.13
2022-09-12T03:00:15.817Z,14.58
2022-09-12T03:03:08.680Z,13.94
2022-09-12T03:05:42.114Z,14.11
2022-09-12T03:08:39.457Z,14.62
2022-09-12T03:11:28.528Z,14.43
2022-09-12T03:14:07.202Z,14.65
2022-09-12T03:16:42.067Z,14.48
2022-09-12T03:19:19.229Z,14.70
2022-09-12T03:21:59.756Z,14.84
2022-09-12T03:24:34.146Z,14.72
2022-09-12T03:27:09.579Z,13.94
2022-09-12T03:29:39.246Z,13.25
2022-09-12T03:32:07.486Z,13.43
2022-09-12T03:34:35.369Z,13.62
2022-09-12T03:37:04.572Z,14.13
2022-09-12T03:39:32.432Z,14.38
2022-09-12T03:42:00.284Z,14.44
2022-09-12T03:44:30.110Z,14.44
2022-09-12T03:46:57.909Z,14.48
2022-09-12T03:49:25.779Z,14.15
2022-09-12T03:51:53.540Z,14.04
2022-09-12T03:54:23.029Z,14.02
2022-09-12T03:56:50.757Z,13.79
2022-09-12T03:59:18.499Z,13.90
2022-09-12T04:01:46.274Z,14.08
2022-09-12T04:04:16.133Z,14.03
2022-09-12T04:06:44.070Z,13.64
2022-09-12T04:09:11.834Z,14.09
2022-09-12T04:11:40.942Z,14.33
2022-09-12T04:14:08.886Z,14.49
2022-09-12T04:16:36.667Z,14.40
2022-09-12T04:19:04.872Z,14.48
2022-09-12T04:21:32.757Z,14.56
2022-09-12T04:24:00.517Z,14.35
2022-09-12T04:26:29.749Z,14.19
2022-09-12T04:28:59.202Z,14.24
2022-09-12T04:31:27.286Z,14.44
2022-09-12T04:33:55.643Z,14.38
2022-09-12T04:36:24.011Z,14.45
2022-09-12T04:38:52.936Z,14.38
2022-09-12T04:41:22.741Z,14.13
2022-09-12T04:43:54.284Z,13.30
2022-09-12T04:46:23.549Z,13.58
2022-09-12T04:48:56.493Z,13.93
2022-09-12T04:51:27.669Z,14.15
2022-09-12T04:53:58.035Z,14.20
2022-09-12T04:56:27.023Z,14.07
2022-09-12T04:58:54.932Z,14.13
2022-09-12T05:01:24.383Z,14.19
2022-09-12T05:03:52.759Z,14.31
2022-09-12T05:06:22.142Z,14.37
2022-09-12T05:08:53.753Z,14.46
2022-09-12T05:11:26.611Z,14.52
2022-09-12T05:13:58.452Z,14.50
2022-09-12T05:16:28.925Z,13.92
2022-09-12T05:18:58.337Z,14.22
2022-09-12T05:21:30.322Z,14.28
2022-09-12T05:23:59.727Z,14.31
2022-09-12T05:26:28.332Z,14.41
2022-09-12T05:28:56.187Z,14.49
2022-09-12T05:31:26.249Z,14.50
2022-09-12T05:33:56.694Z,14.41
2022-09-12T05:36:42.880Z,14.39
2022-09-12T05:39:10.801Z,13.77
2022-09-12T05:41:39.086Z,13.56
2022-09-12T05:44:14.104Z,13.35
2022-09-12T05:46:44.170Z,13.83
2022-09-12T05:49:14.834Z,14.44
2022-09-12T05:51:44.345Z,14.76
2022-09-12T05:54:17.751Z,14.84
2022-09-12T05:56:46.396Z,15.01
2022-09-12T05:59:16.843Z,15.16
2022-09-12T06:01:47.130Z,15.17
2022-09-12T06:04:17.278Z,15.26
2022-09-12T06:06:48.798Z,15.19
2022-09-12T06:09:17.888Z,15.18
2022-09-12T06:11:46.858Z,15.17
2022-09-12T06:14:16.977Z,15.26
2022-09-12T06:16:44.827Z,15.58
2022-09-12T06:19:17.863Z,15.79
2022-09-12T06:21:47.528Z,15.92
2022-09-12T06:24:15.298Z,15.89
2022-09-12T06:26:43.701Z,15.91
2022-09-12T06:29:14.258Z,15.83
2022-09-12T06:31:44.124Z,16.13
2022-09-12T06:34:15.006Z,16.07
2022-09-12T06:36:45.896Z,16.18
2022-09-12T06:39:18.322Z,15.90
2022-09-12T06:41:47.207Z,16.30
2022-09-12T06:44:17.206Z,16.44
2022-09-12T06:46:45.381Z,16.68
2022-09-12T06:49:14.163Z,16.69
2022-09-12T06:51:43.207Z,16.66
2022-09-12T06:54:14.214Z,16.76
2022-09-12T06:56:42.262Z,16.81
2022-09-12T06:59:10.156Z,16.72
2022-09-12T07:01:38.142Z,16.58
2022-09-12T07:04:06.492Z,16.49
2022-09-12T07:06:38.067Z,16.78
2022-09-12T07:09:07.631Z,17.14
2022-09-12T07:11:39.012Z,17.18
2022-09-12T07:14:10.963Z,17.38
2022-09-12T07:16:39.016Z,17.52
2022-09-12T07:19:08.315Z,17.75
2022-09-12T07:21:40.013Z,17.40
2022-09-12T07:24:10.259Z,17.93
2022-09-12T07:26:42.142Z,17.82
2022-09-12T07:32:02.838Z,18.84
2022-09-12T07:34:30.646Z,19.21
2022-09-12T07:36:58.656Z,18.82
2022-09-12T07:39:26.498Z,19.26
2022-09-12T07:41:56.038Z,19.57
2022-09-12T07:44:23.834Z,19.55
2022-09-12T07:46:52.278Z,19.66
2022-09-12T07:49:20.114Z,20.28
2022-09-12T07:51:47.898Z,20.36
2022-09-12T07:54:15.810Z,20.60
2022-09-12T07:56:43.643Z,20.95
2022-09-12T07:59:13.542Z,20.96
2022-09-12T08:01:41.672Z,21.18
2022-09-12T08:04:09.807Z,21.80
2022-09-12T08:06:37.649Z,21.84
2022-09-12T08:09:07.780Z,22.10
2022-09-12T08:11:35.702Z,22.71
2022-09-12T08:14:05.610Z,23.28
2022-09-12T08:16:35.654Z,22.98
2022-09-12T08:19:04.496Z,23.17
2022-09-12T08:21:33.985Z,23.50
2022-09-12T08:24:03.848Z,23.82
2022-09-12T08:26:32.696Z,24.03
2022-09-12T08:29:00.521Z,24.36
2022-09-12T08:31:29.458Z,24.00
2022-09-12T08:33:59.249Z,24.43
2022-09-12T08:36:29.544Z,23.96
2022-09-12T08:39:00.393Z,23.82
2022-09-12T08:41:34.686Z,24.41
2022-09-12T08:44:27.695Z,24.85
2022-09-12T08:47:18.187Z,25.47
2022-09-12T08:49:54.955Z,25.58
2022-09-12T08:52:28.847Z,25.38
2022-09-12T08:54:57.627Z,25.69
2022-09-12T08:57:25.700Z,25.32
2022-09-12T08:59:54.301Z,25.40
2022-09-12T09:02:42.092Z,25.19
2022-09-12T09:05:22.415Z,25.14
2022-09-12T09:08:16.679Z,25.90
2022-09-12T09:10:50.313Z,25.80
2022-09-12T09:13:50.005Z,26.68
2022-09-12T09:16:26.183Z,25.76
2022-09-12T09:18:57.330Z,26.48
2022-09-12T09:21:31.653Z,25.97
2022-09-12T09:24:05.946Z,25.97
2022-09-12T09:26:44.391Z,26.40
2022-09-12T09:29:17.688Z,26.68
2022-09-12T09:31:49.921Z,26.52
2022-09-12T09:34:21.907Z,26.40
2022-09-12T09:37:04.883Z,27.28
2022-09-12T09:39:44.357Z,27.19
2022-09-12T09:42:27.017Z,27.76
2022-09-12T09:45:01.118Z,27.97
2022-09-12T09:47:29.327Z,27.58
2022-09-12T09:49:57.379Z,27.94
2022-09-12T09:52:30.609Z,27.60
2022-09-12T09:55:00.721Z,27.80
2022-09-12T09:57:44.608Z,25.62
2022-09-12T10:00:30.548Z,24.62
2022-09-12T10:03:11.302Z,25.91
2022-09-12T10:05:48.035Z,27.04
2022-09-12T10:08:24.464Z,26.86
2022-09-12T10:11:01.800Z,27.33
2022-09-12T10:13:36.336Z,27.85
2022-09-12T10:16:08.439Z,28.05
2022-09-12T10:18:40.450Z,27.73
2022-09-12T10:21:31.873Z,26.64
2022-09-12T10:24:06.872Z,25.82
2022-09-12T10:26:38.663Z,25.22
2022-09-12T10:29:16.151Z,26.76
2022-09-12T10:31:48.380Z,25.91
2022-09-12T10:34:30.593Z,26.22
2022-09-12T10:37:04.634Z,26.84
2022-09-12T10:39:38.548Z,26.68
2022-09-12T10:42:07.252Z,27.39
2022-09-12T10:44:36.069Z,27.54
2022-09-12T10:47:22.500Z,26.69
2022-09-12T10:49:50.908Z,27.86
2022-09-12T10:52:23.100Z,26.87
2022-09-12T10:54:52.678Z,27.32
2022-09-12T10:58:09.689Z,27.65
2022-09-12T11:00:50.989Z,28.21
2022-09-12T11:03:25.330Z,27.42
2022-09-12T11:05:56.497Z,28.52
2022-09-12T11:08:41.967Z,28.39
2022-09-12T11:11:23.569Z,28.49
2022-09-12T11:14:07.804Z,28.04
2022-09-12T11:16:44.384Z,28.15
2022-09-12T11:19:27.945Z,27.31
2022-09-12T11:22:19.211Z,28.34
2022-09-12T11:25:15.311Z,28.74
2022-09-12T11:28:00.510Z,27.98
2022-09-12T11:30:38.299Z,28.28
2022-09-12T11:33:25.402Z,28.65
2022-09-12T11:35:57.276Z,28.73
2022-09-12T11:38:40.677Z,29.13
2022-09-12T11:41:10.851Z,29.37
2022-09-12T11:43:47.614Z,28.88
2022-09-12T11:46:23.804Z,29.22
2022-09-12T11:48:58.374Z,29.31
2022-09-12T11:51:29.015Z,28.98
2022-09-12T11:54:06.783Z,29.36
2022-09-12T11:56:39.281Z,29.46
2022-09-12T11:59:16.610Z,28.44
2022-09-12T12:01:56.369Z,29.37
2022-09-12T12:04:30.859Z,29.50
2022-09-12T12:07:04.340Z,28.81
2022-09-12T12:09:32.846Z,29.40
2022-09-12T12:12:05.162Z,29.35
2022-09-12T12:14:39.652Z,29.66
2022-09-12T12:17:16.673Z,29.22
2022-09-12T12:19:44.803Z,29.86
2022-09-12T12:22:22.775Z,28.76
2022-09-12T12:25:04.776Z,29.78
2022-09-12T12:27:53.816Z,30.39
2022-09-12T12:31:02.054Z,30.32
2022-09-12T12:34:16.300Z,30.23
2022-09-12T12:36:46.327Z,30.35
2022-09-12T12:40:01.002Z,30.19
2022-09-12T12:42:59.768Z,29.58
2022-09-12T12:45:50.740Z,29.79
2022-09-12T12:48:20.412Z,29.01
2022-09-12T12:50:48.804Z,28.83
2022-09-12T12:53:23.076Z,30.02
2022-09-12T12:55:53.843Z,28.70
2022-09-12T12:58:32.675Z,28.92
2022-09-12T13:01:13.745Z,29.06
2022-09-12T13:03:44.937Z,29.66
2022-09-12T13:06:33.066Z,29.40
2022-09-12T13:09:05.611Z,29.61
2022-09-12T13:11:36.759Z,28.84
2022-09-12T13:14:07.161Z,28.58
2022-09-12T13:16:37.104Z,29.44
2022-09-12T13:19:09.143Z,29.75
2022-09-12T13:21:37.213Z,29.99
2022-09-12T13:24:15.130Z,30.00
2022-09-12T13:26:46.904Z,28.58
2022-09-12T13:29:17.587Z,28.72
2022-09-12T13:31:47.976Z,26.56
2022-09-12T13:34:21.552Z,27.93
2022-09-12T13:37:06.490Z,28.76
2022-09-12T13:39:47.269Z,29.08
2022-09-12T13:42:33.410Z,27.95
2022-09-12T13:45:05.848Z,28.31
2022-09-12T13:47:36.834Z,28.36
2022-09-12T13:50:07.194Z,28.45
2022-09-12T13:52:37.050Z,28.01
2022-09-12T13:55:15.438Z,28.50
2022-09-12T13:57:43.229Z,27.77
2022-09-12T14:00:19.957Z,27.34
2022-09-12T14:03:11.220Z,26.80
2022-09-12T14:05:40.837Z,27.20
2022-09-12T14:08:10.145Z,27.95
2022-09-12T14:10:44.269Z,28.49
2022-09-12T14:13:14.874Z,28.27
2022-09-12T14:15:46.697Z,27.57
2022-09-12T14:18:24.398Z,27.79
2022-09-12T14:20:56.841Z,28.48
2022-09-12T14:23:30.255Z,27.87
2022-09-12T14:26:02.500Z,27.99
2022-09-12T14:28:31.482Z,27.61
2022-09-12T14:31:01.973Z,27.67
2022-09-12T14:33:34.923Z,27.94
2022-09-12T14:36:13.131Z,28.15
2022-09-12T14:38:44.767Z,28.12
2022-09-12T14:41:22.668Z,28.32
2022-09-12T14:43:55.551Z,28.24
2022-09-12T14:46:28.425Z,27.82
2022-09-12T14:49:01.121Z,27.71
2022-09-12T14:51:33.782Z,28.09
2022-09-12T14:54:02.682Z,28.31
2022-09-12T14:56:43.610Z,28.45
2022-09-12T14:59:32.180Z,27.72
2022-09-12T15:02:33.222Z,27.54
2022-09-12T15:05:17.883Z,27.74
2022-09-12T15:07:53.720Z,27.87
2022-09-12T15:10:25.221Z,27.50
2022-09-12T15:13:14.174Z,27.67
2022-09-12T15:15:43.931Z,27.10
2022-09-12T15:18:13.724Z,27.54
2022-09-12T15:20:43.925Z,27.70
2022-09-12T15:23:18.940Z,27.56
2022-09-12T15:25:47.416Z,27.29
2022-09-12T15:28:22.025Z,27.15
2022-09-12T15:30:54.870Z,27.50
2022-09-12T15:33:25.098Z,27.04
2022-09-12T15:35:53.795Z,26.84
2022-09-12T15:38:25.758Z,27.43
2022-09-12T15:40:54.835Z,27.12
2022-09-12T15:43:26.224Z,27.14
2022-09-12T15:45:54.334Z,26.92
2022-09-12T15:48:22.355Z,27.05
2022-09-12T15:50:50.429Z,27.32
2022-09-12T15:53:18.388Z,27.35
2022-09-12T15:55:46.314Z,27.28
2022-09-12T15:58:14.560Z,27.32
2022-09-12T16:00:43.953Z,27.09
2022-09-12T16:03:22.431Z,26.71
2022-09-12T16:05:50.829Z,26.70
2022-09-12T16:08:20.876Z,27.01
2022-09-12T16:10:53.984Z,27.26
2022-09-12T16:13:21.865Z,27.34
2022-09-12T16:15:53.726Z,27.30
2022-09-12T16:18:21.519Z,27.40
2022-09-12T16:20:53.345Z,27.10
2022-09-12T16:23:21.539Z,27.03
2022-09-12T16:25:57.789Z,26.88
2022-09-12T16:28:25.839Z,26.25
2022-09-12T16:30:59.017Z,26.36
2022-09-12T16:33:27.569Z,26.55
2022-09-12T16:36:03.282Z,26.56
2022-09-12T16:38:31.193Z,26.61
2022-09-12T16:41:02.422Z,26.63
2022-09-12T16:43:30.745Z,26.53
2022-09-12T16:46:03.790Z,26.50
2022-09-12T16:48:32.362Z,26.46
2022-09-12T16:51:01.889Z,26.42
2022-09-12T16:53:31.589Z,26.10
2022-09-12T16:55:59.559Z,25.97
2022-09-12T16:58:27.685Z,25.89
2022-09-12T17:01:01.446Z,25.89
2022-09-12T17:03:31.019Z,25.77
2022-09-12T17:06:00.833Z,25.62
2022-09-12T17:08:28.698Z,25.67
2022-09-12T17:11:01.141Z,25.40
2022-09-12T17:13:41.328Z,25.28
2022-09-12T17:16:17.608Z,25.14
2022-09-12T17:18:46.805Z,25.15
2022-09-12T17:21:15.048Z,25.13
2022-09-12T17:23:43.354Z,24.86
2022-09-12T17:26:11.825Z,24.44
2022-09-12T17:28:40.582Z,24.40
2022-09-12T17:31:10.354Z,24.35
2022-09-12T17:33:39.115Z,24.15
2022-09-12T17:36:11.119Z,24.25
2022-09-12T17:38:40.625Z,23.71
2022-09-12T17:41:15.011Z,23.99
2022-09-12T17:43:43.581Z,24.06
2022-09-12T17:46:11.687Z,23.84
2022-09-12T17:48:39.597Z,23.59
2022-09-12T17:51:10.088Z,23.31
2022-09-12T17:53:37.979Z,23.48
2022-09-12T17:56:07.155Z,23.60
2022-09-12T17:58:35.542Z,23.41
2022-09-12T18:01:22.328Z,23.34
2022-09-12T18:03:50.681Z,23.08
2022-09-12T18:06:19.837Z,22.56
2022-09-12T18:08:47.617Z,22.23
2022-09-12T18:11:15.664Z,22.77
2022-09-12T18:13:43.570Z,23.06
2022-09-12T18:16:13.109Z,22.62
2022-09-12T18:18:41.527Z,22.49
2022-09-12T18:21:12.284Z,22.17
2022-09-12T18:23:41.460Z,22.26
2022-09-12T18:26:13.091Z,22.10
2022-09-12T18:28:42.463Z,21.98
2022-09-12T18:31:13.286Z,21.83
2022-09-12T18:33:41.630Z,22.35
2022-09-12T18:36:13.623Z,22.26
2022-09-12T18:38:43.513Z,22.34
2022-09-12T18:41:13.226Z,22.24
2022-09-12T18:43:40.988Z,21.80
2022-09-12T18:46:11.140Z,21.73
2022-09-12T18:48:39.427Z,21.32
2022-09-12T18:51:12.430Z,20.90
2022-09-12T18:53:40.566Z,21.46
2022-09-12T18:56:12.102Z,21.30
2022-09-12T18:58:42.575Z,21.34
2022-09-12T19:01:12.096Z,21.62
2022-09-12T19:03:40.173Z,21.78
2022-09-12T19:06:11.748Z,21.86
2022-09-12T19:08:40.118Z,21.84
2022-09-12T19:11:09.977Z,21.68
2022-09-12T19:13:40.055Z,21.68
2022-09-12T19:16:10.502Z,21.66
2022-09-12T19:18:39.566Z,21.63
2022-09-12T19:21:08.930Z,21.37
2022-09-12T19:23:38.900Z,20.36
2022-09-12T19:26:10.789Z,20.80
2022-09-12T19:28:38.890Z,21.18
2022-09-12T19:31:07.465Z,21.21
2022-09-12T19:33:35.654Z,20.99
2022-09-12T19:36:04.339Z,20.01
2022-09-12T19:38:32.143Z,20.36
2022-09-12T19:41:01.034Z,20.40
2022-09-12T19:43:31.613Z,20.54
2022-09-12T19:46:00.047Z,20.67
2022-09-12T19:48:28.300Z,20.67
2022-09-12T19:50:59.889Z,20.76
2022-09-12T19:53:28.227Z,20.70
2022-09-12T19:56:00.310Z,20.47
2022-09-12T19:58:28.529Z,19.91
2022-09-12T20:00:58.551Z,20.31
2022-09-12T20:03:26.346Z,20.37
2022-09-12T20:05:54.109Z,19.42
2022-09-12T20:08:21.956Z,19.32
2022-09-12T20:10:52.784Z,19.20
2022-09-12T20:13:22.914Z,19.12
2022-09-12T20:15:50.677Z,19.27
2022-09-12T20:18:19.891Z,19.71
2022-09-12T20:20:47.642Z,20.03
2022-09-12T20:23:15.360Z,20.08
2022-09-12T20:25:43.166Z,19.92
2022-09-12T20:28:10.932Z,20.00
2022-09-12T20:30:38.673Z,19.51
2022-09-12T20:33:08.935Z,19.13
2022-09-12T20:35:38.123Z,19.06
2022-09-12T20:38:05.867Z,19.71
2022-09-12T20:40:33.571Z,19.63
2022-09-12T20:43:01.379Z,19.07
2022-09-12T20:45:29.147Z,18.96
2022-09-12T20:47:56.912Z,19.38
2022-09-12T20:50:24.670Z,19.27
2022-09-12T20:52:53.772Z,19.10
2022-09-12T20:55:21.491Z,19.23
2022-09-12T20:57:50.556Z,19.56
2022-09-12T21:00:18.853Z,19.19
2022-09-12T21:02:46.659Z,19.08
2022-09-12T21:05:14.473Z,19.16
2022-09-12T21:07:42.226Z,19.01
2022-09-12T21:10:11.726Z,19.08
2022-09-12T21:12:39.543Z,18.73
2022-09-12T21:15:08.292Z,18.36
2022-09-12T21:17:36.056Z,18.23
2022-09-12T21:20:06.921Z,18.09
2022-09-12T21:22:37.216Z,18.39
2022-09-12T21:25:05.630Z,19.01
2022-09-12T21:27:34.789Z,19.17
2022-09-12T21:30:03.658Z,19.07
2022-09-12T21:32:34.729Z,18.83
2022-09-12T21:35:03.004Z,18.91
2022-09-12T21:37:32.942Z,18.91
2022-09-12T21:40:00.737Z,19.21
2022-09-12T21:42:28.501Z,19.17
2022-09-12T21:44:57.610Z,19.12
2022-09-12T21:47:27.447Z,19.01
2022-09-12T21:49:55.654Z,18.95
2022-09-12T21:52:23.350Z,18.49
2022-09-12T21:54:51.089Z,18.27
2022-09-12T21:57:18.814Z,18.87
2022-09-12T21:59:46.587Z,18.83
2022-09-12T22:02:15.907Z,18.96
2022-09-12T22:04:44.027Z,18.94
2022-09-12T22:07:11.862Z,19.08
2022-09-12T22:09:39.594Z,19.18
2022-09-12T22:12:07.621Z,19.13
2022-09-12T22:14:35.860Z,19.16
2022-09-12T22:17:03.848Z,19.13
2022-09-12T22:19:35.076Z,18.93
2022-09-12T22:22:20.106Z,18.85
2022-09-12T22:24:47.883Z,18.75
2022-09-12T22:27:15.715Z,18.81
2022-09-12T22:29:46.090Z,19.08
2022-09-12T22:32:14.627Z,18.88
2022-09-12T22:34:43.955Z,18.75
2022-09-12T22:37:12.380Z,18.74
2022-09-12T22:39:40.564Z,18.94
2022-09-12T22:42:09.616Z,18.86
2022-09-12T22:44:37.389Z,19.05
2022-09-12T22:47:07.529Z,19.13
2022-09-12T22:49:35.316Z,19.18
2022-09-12T22:52:04.685Z,19.08
2022-09-12T22:54:34.984Z,19.04
2022-09-12T22:57:02.701Z,19.19
2022-09-12T22:59:30.471Z,19.12
2022-09-12T23:01:58.237Z,19.22
2022-09-12T23:04:26.029Z,19.24
2022-09-12T23:06:54.019Z,19.24
2022-09-12T23:09:23.541Z,19.23
2022-09-12T23:11:53.720Z,19.15
2022-09-12T23:14:21.550Z,19.16
2022-09-12T23:16:49.399Z,19.07
2022-09-12T23:19:17.184Z,19.06
2022-09-12T23:21:45.718Z,19.07
2022-09-12T23:24:13.540Z,19.09
2022-09-12T23:26:42.841Z,19.09
2022-09-12T23:29:11.385Z,18.93
2022-09-12T23:31:39.548Z,18.82
2022-09-12T23:34:07.361Z,18.75
2022-09-12T23:36:35.453Z,18.76
2022-09-12T23:39:03.296Z,18.69
2022-09-12T23:41:31.181Z,18.70
2022-09-12T23:44:00.645Z,18.64
2022-09-12T23:46:28.548Z,18.30
2022-09-12T23:48:56.299Z,17.94
2022-09-12T23:51:24.100Z,17.73
2022-09-12T23:53:51.988Z,17.95
2022-09-12T23:56:19.744Z,18.14
2022-09-12T23:58:47.565Z,18.22
